createdAt,value
2023-04-28T00:04:58.605Z,97699.78
2023-04-28T00:09:59.968Z,97693.22
2023-04-28T00:15:01.422Z,97696.53
2023-04-28T00:20:03.095Z,97696.91
2023-04-28T00:25:04.716Z,97690.25
2023-04-28T00:30:05.972Z,97688.47
2023-04-28T00:35:07.542Z,97697.06
2023-04-28T00:40:08.827Z,97688.31
2023-04-28T00:45:10.101Z,97691.25
2023-04-28T00:50:11.532Z,97691.00
2023-04-28T00:55:13.000Z,97691.00
2023-04-28T01:00:16.082Z,97682.38
2023-04-28T01:05:17.319Z,97668.84
2023-04-28T01:10:18.594Z,97675.66
2023-04-28T01:15:20.064Z,97671.72
2023-04-28T01:20:21.618Z,97663.00
2023-04-28T01:25:22.827Z,97660.91
2023-04-28T01:30:24.055Z,97662.31
2023-04-28T01:35:25.255Z,97653.53
2023-04-28T01:40:26.519Z,97652.53
2023-04-28T01:45:27.734Z,97654.38
2023-04-28T01:50:28.976Z,97657.06
2023-04-28T01:55:30.510Z,97647.09
2023-04-28T02:00:31.858Z,97638.06
2023-04-28T02:05:33.082Z,97636.78
2023-04-28T02:10:34.318Z,97632.06
2023-04-28T02:15:35.835Z,97632.44
2023-04-28T02:20:37.144Z,97624.78
2023-04-28T02:25:38.399Z,97610.38
2023-04-28T02:30:39.657Z,97611.38
2023-04-28T02:35:41.027Z,97611.78
2023-04-28T02:40:42.256Z,97605.94
2023-04-28T02:45:43.477Z,97592.88
2023-04-28T02:50:46.214Z,97593.22
2023-04-28T02:55:47.541Z,97605.16
2023-04-28T03:00:49.035Z,97599.44
2023-04-28T03:05:50.345Z,97592.44
2023-04-28T03:10:51.595Z,97593.00
2023-04-28T03:15:52.920Z,97590.13
2023-04-28T03:20:54.232Z,97576.72
2023-04-28T03:25:55.612Z,97585.06
2023-04-28T03:30:57.412Z,97570.56
2023-04-28T03:35:58.711Z,97570.06
2023-04-28T03:40:59.956Z,97566.63
2023-04-28T03:46:01.275Z,97547.75
2023-04-28T03:51:02.536Z,97566.06
2023-04-28T03:56:03.780Z,97541.75
2023-04-28T04:01:05.691Z,97540.72
2023-04-28T04:06:07.170Z,97542.34
2023-04-28T04:11:08.451Z,97545.34
2023-04-28T04:16:09.726Z,97544.91
2023-04-28T04:21:11.124Z,97544.81
2023-04-28T04:26:12.365Z,97531.25
2023-04-28T04:31:13.698Z,97522.13
2023-04-28T04:36:15.022Z,97525.22
2023-04-28T04:41:16.523Z,97526.88
2023-04-28T04:46:17.781Z,97513.19
2023-04-28T04:51:19.263Z,97509.25
2023-04-28T04:56:20.475Z,97519.69
2023-04-28T05:01:22.106Z,97524.59
2023-04-28T05:06:23.364Z,97504.75
2023-04-28T05:11:26.635Z,97485.50
2023-04-28T05:16:27.935Z,97491.53
2023-04-28T05:21:29.150Z,97506.47
2023-04-28T05:26:30.446Z,97500.41
2023-04-28T05:31:31.712Z,97488.13
2023-04-28T05:36:32.997Z,97495.72
2023-04-28T05:41:34.207Z,97502.31
2023-04-28T05:46:36.044Z,97513.25
2023-04-28T05:51:37.520Z,97521.50
2023-04-28T05:56:38.902Z,97526.59
2023-04-28T06:01:40.204Z,97515.72
2023-04-28T06:06:41.463Z,97512.78
2023-04-28T06:11:42.674Z,97502.94
2023-04-28T06:16:44.069Z,97509.31
2023-04-28T06:21:45.776Z,97503.94
2023-04-28T06:26:47.087Z,97499.56
2023-04-28T06:31:48.404Z,97493.94
2023-04-28T06:36:49.633Z,97487.69
2023-04-28T06:41:50.839Z,97475.44
2023-04-28T06:46:52.208Z,97491.66
2023-04-28T06:51:53.533Z,97507.75
2023-04-28T06:56:54.744Z,97511.28
2023-04-28T07:01:57.028Z,97537.94
2023-04-28T07:06:58.348Z,97538.88
2023-04-28T07:11:59.672Z,97556.16
2023-04-28T07:17:00.989Z,97555.44
2023-04-28T07:22:02.520Z,97552.66
2023-04-28T07:27:03.812Z,97550.13
2023-04-28T07:32:07.404Z,97561.53
2023-04-28T07:37:09.740Z,97567.78
2023-04-28T07:42:11.041Z,97560.81
2023-04-28T07:47:12.316Z,97574.44
2023-04-28T07:52:13.626Z,97578.81
2023-04-28T07:57:14.911Z,97582.25
2023-04-28T08:02:16.679Z,97578.03
2023-04-28T08:07:18.095Z,97578.09
2023-04-28T08:12:19.372Z,97586.03
2023-04-28T08:17:20.733Z,97580.94
2023-04-28T08:22:22.034Z,97585.06
2023-04-28T08:27:24.888Z,97578.25
2023-04-28T08:32:26.190Z,97580.53
2023-04-28T08:37:27.605Z,97588.81
2023-04-28T08:42:29.093Z,97587.91
2023-04-28T08:47:31.500Z,97586.63
2023-04-28T08:52:33.247Z,97592.31
2023-04-28T08:57:34.588Z,97581.84
2023-04-28T09:02:37.933Z,97591.22
2023-04-28T09:07:39.433Z,97594.41
2023-04-28T09:12:40.847Z,97601.44
2023-04-28T09:17:42.282Z,97602.69
2023-04-28T09:22:43.592Z,97590.44
2023-04-28T09:27:44.947Z,97590.13
2023-04-28T09:32:46.195Z,97569.53
2023-04-28T09:37:47.555Z,97565.13
2023-04-28T09:42:48.869Z,97553.13
2023-04-28T09:47:50.268Z,97563.31
2023-04-28T09:52:51.511Z,97554.16
2023-04-28T09:57:52.709Z,97545.63
2023-04-28T10:02:54.122Z,97540.34
2023-04-28T10:07:56.386Z,97539.75
2023-04-28T10:12:57.665Z,97544.59
2023-04-28T10:17:59.133Z,97542.63
2023-04-28T10:23:00.539Z,97542.56
2023-04-28T10:28:02.322Z,97554.03
2023-04-28T10:33:04.008Z,97549.00
2023-04-28T10:38:05.738Z,97545.34
2023-04-28T10:43:07.049Z,97537.72
2023-04-28T10:48:08.302Z,97524.41
2023-04-28T10:53:09.533Z,97510.88
2023-04-28T10:58:10.731Z,97502.91
2023-04-28T11:03:12.098Z,97496.72
2023-04-28T11:08:13.404Z,97504.00
2023-04-28T11:13:14.621Z,97487.91
2023-04-28T11:18:15.820Z,97491.34
2023-04-28T11:23:17.011Z,97493.22
2023-04-28T11:28:18.413Z,97487.19
2023-04-28T11:33:19.687Z,97467.53
2023-04-28T11:38:20.904Z,97479.06
2023-04-28T11:43:22.138Z,97466.63
2023-04-28T11:48:23.414Z,97497.78
2023-04-28T11:53:24.621Z,97474.69
2023-04-28T11:58:27.892Z,97469.88
2023-04-28T12:03:29.257Z,97470.34
2023-04-28T12:08:30.756Z,97466.28
2023-04-28T12:13:31.964Z,97465.22
2023-04-28T12:18:33.252Z,97468.53
2023-04-28T12:23:34.471Z,97478.41
2023-04-28T12:28:36.341Z,97493.41
2023-04-28T12:33:38.601Z,97494.94
2023-04-28T12:38:40.020Z,97477.72
2023-04-28T12:43:44.540Z,97468.09
2023-04-28T12:48:45.811Z,97452.06
2023-04-28T12:53:47.051Z,97447.22
2023-04-28T12:58:48.333Z,97434.91
2023-04-28T13:03:51.044Z,97438.25
2023-04-28T13:08:52.577Z,97444.44
2023-04-28T13:13:53.993Z,97450.56
2023-04-28T13:18:56.515Z,97449.03
2023-04-28T13:23:57.835Z,97438.34
2023-04-28T13:28:59.288Z,97448.91
2023-04-28T13:34:02.122Z,97450.06
2023-04-28T13:39:03.357Z,97456.78
2023-04-28T13:44:04.613Z,97445.53
2023-04-28T13:49:05.904Z,97446.72
2023-04-28T13:54:11.603Z,97429.28
2023-04-28T13:59:13.074Z,97433.50
2023-04-28T14:04:14.482Z,97453.97
2023-04-28T14:09:16.136Z,97423.97
2023-04-28T14:14:17.468Z,97432.50
2023-04-28T14:19:18.792Z,97445.09
2023-04-28T14:24:20.211Z,97449.69
2023-04-28T14:29:21.487Z,97435.34
2023-04-28T14:34:22.774Z,97422.94
2023-04-28T14:39:24.291Z,97425.41
2023-04-28T14:44:26.022Z,97419.72
2023-04-28T14:49:27.680Z,97404.59
2023-04-28T14:54:29.138Z,97410.16
2023-04-28T14:59:31.016Z,97410.75
2023-04-28T15:04:32.407Z,97406.47
2023-04-28T15:09:33.898Z,97415.41
2023-04-28T15:14:35.369Z,97420.19
2023-04-28T15:19:36.930Z,97433.09
2023-04-28T15:24:38.202Z,97394.19
2023-04-28T15:29:40.043Z,97386.63
2023-04-28T15:34:41.324Z,97395.38
2023-04-28T15:39:42.646Z,97394.34
2023-04-28T15:44:43.886Z,97365.31
2023-04-28T15:49:45.209Z,97378.59
2023-04-28T15:54:46.539Z,97372.75
2023-04-28T15:59:47.746Z,97379.00
2023-04-28T16:04:49.415Z,97379.66
2023-04-28T16:09:52.050Z,97388.50
2023-04-28T16:14:53.926Z,97384.56
2023-04-28T16:19:55.210Z,97371.16
2023-04-28T16:24:56.945Z,97372.25
2023-04-28T16:29:58.328Z,97374.53
2023-04-28T16:34:59.737Z,97384.56
2023-04-28T16:40:01.410Z,97379.63
2023-04-28T16:45:02.793Z,97369.38
2023-04-28T16:50:04.129Z,97371.88
2023-04-28T16:55:05.590Z,97366.31
2023-04-28T17:00:06.984Z,97358.06
2023-04-28T17:05:08.284Z,97358.50
2023-04-28T17:10:09.655Z,97360.91
2023-04-28T17:15:11.219Z,97363.84
2023-04-28T17:20:16.011Z,97364.22
2023-04-28T17:25:17.383Z,97354.88
2023-04-28T17:30:18.610Z,97355.97
2023-04-28T17:35:19.891Z,97362.41
2023-04-28T17:40:24.105Z,97356.75
2023-04-28T17:45:26.406Z,97366.59
2023-04-28T17:50:27.861Z,97359.34
2023-04-28T17:55:29.126Z,97375.75
2023-04-28T18:00:30.492Z,97369.75
2023-04-28T18:05:32.483Z,97362.06
2023-04-28T18:10:35.348Z,97376.28
2023-04-28T18:15:37.049Z,97377.97
2023-04-28T18:20:38.279Z,97362.69
2023-04-28T18:25:39.551Z,97311.25
2023-04-28T18:30:40.770Z,97379.34
2023-04-28T18:35:42.072Z,97378.81
2023-04-28T18:40:43.334Z,97398.47
2023-04-28T18:45:44.614Z,97387.94
2023-04-28T18:50:48.562Z,97379.44
2023-04-28T18:55:49.938Z,97356.38
2023-04-28T19:00:51.245Z,97332.78
2023-04-28T19:05:53.669Z,97374.25
2023-04-28T19:10:54.889Z,97377.97
2023-04-28T19:15:56.186Z,97415.25
2023-04-28T19:20:57.486Z,97423.53
2023-04-28T19:25:58.978Z,97419.69
2023-04-28T19:31:00.357Z,97426.09
2023-04-28T19:36:01.615Z,97422.09
2023-04-28T19:41:02.918Z,97413.22
2023-04-28T19:46:04.245Z,97420.81
2023-04-28T19:51:05.638Z,97406.94
2023-04-28T19:56:09.798Z,97400.75
2023-04-28T20:01:11.082Z,97402.66
2023-04-28T20:06:12.347Z,97401.19
2023-04-28T20:11:14.108Z,97419.78
2023-04-28T20:16:15.536Z,97425.66
2023-04-28T20:21:16.899Z,97418.50
2023-04-28T20:26:18.211Z,97410.41
2023-04-28T20:31:19.512Z,97421.00
2023-04-28T20:36:20.889Z,97423.38
2023-04-28T20:41:22.149Z,97422.75
2023-04-28T20:46:23.422Z,97423.50
2023-04-28T20:51:24.769Z,97414.94
2023-04-28T20:56:27.121Z,97424.34
2023-04-28T21:01:28.528Z,97416.25
2023-04-28T21:06:29.879Z,97435.03
2023-04-28T21:11:31.093Z,97434.28
2023-04-28T21:16:33.056Z,97429.44
2023-04-28T21:21:35.057Z,97439.78
2023-04-28T21:26:36.890Z,97441.72
2023-04-28T21:31:38.213Z,97435.88
2023-04-28T21:36:40.365Z,97434.28
2023-04-28T21:41:42.405Z,97439.91
2023-04-28T21:46:43.792Z,97441.25
2023-04-28T21:51:45.885Z,97434.47
2023-04-28T21:56:47.370Z,97427.25
2023-04-28T22:01:48.791Z,97429.00
2023-04-28T22:06:50.091Z,97423.97
2023-04-28T22:11:52.231Z,97437.91
2023-04-28T22:16:53.805Z,97445.28
2023-04-28T22:21:55.056Z,97453.34
2023-04-28T22:26:56.349Z,97448.03
2023-04-28T22:31:58.739Z,97455.50
2023-04-28T22:37:00.022Z,97453.84
2023-04-28T22:42:01.379Z,97438.56
2023-04-28T22:47:03.331Z,97439.69
2023-04-28T22:52:10.869Z,97439.75
2023-04-28T22:57:12.167Z,97439.84
2023-04-28T23:02:13.690Z,97437.25
2023-04-28T23:07:14.978Z,97438.84
2023-04-28T23:12:16.492Z,97432.28
2023-04-28T23:17:17.760Z,97422.69
2023-04-28T23:22:19.004Z,97413.97
2023-04-28T23:27:20.221Z,97416.41
2023-04-28T23:32:21.470Z,97419.50
2023-04-28T23:37:22.736Z,97420.41
2023-04-28T23:42:24.102Z,97410.97
2023-04-28T23:47:25.408Z,97413.88
2023-04-28T23:52:27.060Z,97400.78
2023-04-28T23:57:28.323Z,97395.69
